Weather observations for the past three days for
Point Thomson Airstrip
Imperial (Metric)
Date Time (akdt) Wind (mph) Vis. (mi.) Weather Sky Cond. Temperature (ºF) Relative Humidity Wind Chill (°F) Heat Index (°F) Pressure Precipitation (in)
Air Dwpt 6 hour altimeter (in) sea level (mb) 1 hr 3 hr 6 hr
Max. Min.
10 06:35 E 24 10.00 Overcast and Breezy OVC007 7.2 4.3 88% -13 29.9 0.0
10 06:15 E 24 10.00 Overcast and Breezy OVC007 7.5 4.8 89% -13 29.9 0.0
10 05:55 E 23 10.00 Overcast and Breezy BKN007 OVC012 7.7 5 89% -12 29.9 0.0
10 05:35 NE 24 10.00 Overcast and Breezy OVC010 8.6 5.9 89% -11 29.9 0.0
10 05:15 NE 25 G 29 10.00 Overcast and Breezy OVC010 9.3 6.8 89% -11 29.9 0.0
10 04:55 E 23 10.00 Overcast and Breezy OVC010 9.5 7.2 90% -10 29.9 0.0
10 04:35 NE 24 10.00 Overcast and Breezy OVC010 10.2 7.5 89% -9 29.9 0.0
10 04:15 E 24 10.00 Overcast and Breezy OVC010 10.9 8.2 89% -8 29.9 0.0
10 03:55 E 22 G 26 10.00 Overcast and Breezy OVC010 11.7 8.6 18.9 11.7 87% -6 29.9 0.0
10 03:35 E 24 10.00 Overcast and Breezy OVC010 12 9.3 89% -7 29.9 0.0
10 02:55 E 24 G 28 10.00 Overcast and Breezy OVC010 12.9 10.4 90% -5 29.9 0.0
10 02:35 E 24 10.00 Overcast and Breezy OVC012 13.1 10.8 90% -5 29.9 0.0
10 02:15 E 24 10.00 Overcast and Breezy OVC012 13.6 11.3 90% -4 29.9 0.0
10 01:55 NE 22 10.00 Overcast and Breezy OVC012 13.5 10.9 90% -4 29.9 0.0
10 01:35 E 23 10.00 Mostly Cloudy and Breezy BKN010 BKN016 13.5 11.1 90% -4 29.9 0.0
10 01:15 E 23 10.00 Mostly Cloudy and Breezy SCT010 BKN016 13.5 11.3 91% -4 29.89 0.0
10 00:55 E 22 G 29 10.00 Overcast and Breezy OVC016 14 11.7 90% -3 29.9 0.0
10 00:35 E 23 10.00 Overcast and Breezy OVC014 14 11.8 91% -4 29.9 0.0
10 00:15 E 24 10.00 Overcast and Breezy SCT010 OVC018 14.9 12.6 90% -3 29.9 0.0
09 23:55 E 25 10.00 Overcast and Breezy SCT010 OVC020 15.6 13.3 90% -2 29.9 0.0
09 23:35 E 25 10.00 Overcast and Breezy OVC010 16.5 14.2 90% -1 29.9 0.0
09 23:15 E 26 G 32 7.00 Overcast and Windy OVC010 17.4 14.9 90% -0 29.9 0.0
09 22:55 E 26 7.00 Overcast and Windy BKN008 BKN015 OVC023 17.6 15.4 91% 0 29.9 0.0
09 22:35 E 25 7.00 Overcast and Breezy SCT010 BKN013 OVC023 18 15.8 91% 1 29.9 0.0
09 22:15 E 29 G 33 7.00 Overcast and Windy OVC010 18.5 16.7 93% 1 29.9 0.0
09 21:55 E 29 7.00 Overcast and Windy OVC008 19 16.7 21.7 19 91% 1 29.9 0.0
09 21:35 E 30 G 35 5.00 Fog/Mist and Windy OVC008 19.4 17.4 92% 2 29.9 0.0
09 21:15 E 25 2.50 Fog/Mist and Breezy OVC006 19.8 18 93% 3 29.9 0.0
09 20:55 E 26 0.75 Light Snow and Windy OVC006 20.3 18.7 93% 4 29.9 0.0
09 20:35 E 29 2.50 Fog/Mist and Windy OVC006 20.7 19.2 94% 4 29.9 0.0
09 20:15 E 31 1.50 Fog/Mist and Windy OVC006 21.2 19.6 93% 4 29.9 0.0
09 19:55 E 26 3.00 Fog/Mist and Windy OVC006 21.2 19.8 94% 5 29.9 0.0
09 19:35 E 28 G 33 2.50 Fog/Mist and Windy OVC006 21.6 19.8 93% 5 29.9 0.0
09 19:15 E 28 2.00 Fog/Mist and Windy OVC006 21.4 19.6 93% 5 29.9 0.0
09 18:55 E 26 2.00 Fog/Mist and Windy OVC006 21.2 19.4 93% 5 29.91 0.0
09 18:35 E 28 2.00 Fog/Mist and Windy OVC006 21.2 19.2 92% 5 29.9 0.0
09 18:15 E 28 3.00 Fog/Mist and Windy OVC006 21.2 19 91% 5 29.91 0.0
09 17:55 E 26 G 33 1.75 Fog/Mist and Windy OVC006 20.8 19 93% 4 29.91 0.0
09 17:35 E 25 5.00 Fog/Mist and Breezy OVC008 20.8 18.5 91% 5 29.91 0.0
09 17:15 E 25 G 31 10.00 Overcast and Breezy OVC008 21.2 18.5 89% 5 29.92 0.0
09 16:55 E 25 G 31 7.00 Overcast and Breezy OVC008 21 18.1 89% 5 29.92 0.0
09 16:35 E 26 3.00 Fog/Mist and Windy OVC008 21.2 18.7 90% 5 29.92 0.0
09 16:15 E 29 7.00 Overcast and Windy OVC008 21.7 19.2 90% 5 29.93 0.0
09 15:55 E 25 7.00 Overcast and Breezy OVC008 21.7 18.9 21.7 18 89% 6 29.93 0.0
09 15:35 E 25 7.00 Overcast and Breezy OVC008 21.6 18.5 88% 6 29.94 0.0
09 15:15 E 25 G 30 10.00 Overcast and Breezy OVC008 21.2 18.3 89% 5 29.94 0.0
09 14:55 E 28 G 31 10.00 Overcast and Windy OVC008 21 18 88% 4 29.95 0.0
09 14:35 E 26 G 30 10.00 Overcast and Windy OVC008 20.8 17.6 87% 4 29.95 0.0
09 14:15 E 22 G 31 7.00 Overcast and Breezy OVC008 20.3 17.4 89% 5 29.95 0.0
09 13:55 E 25 5.00 Fog/Mist and Breezy OVC008 20.1 17.2 89% 4 29.95 0.0
09 13:35 E 22 4.00 Fog/Mist and Breezy OVC010 20.1 16.7 87% 5 29.96 0.0
09 13:15 E 25 G 29 3.00 Fog/Mist and Breezy OVC010 20.1 17.1 88% 4 29.96 0.0
09 12:55 E 23 G 29 4.00 Fog/Mist and Breezy OVC010 19.9 16.7 87% 4 29.96 0.0
09 12:35 E 25 G 29 4.00 Fog/Mist and Breezy OVC008 19.8 16.9 89% 3 29.96 0.0
09 12:15 E 21 G 31 3.00 Fog/Mist and Breezy OVC008 19.4 17.1 91% 4 29.97 0.0
09 11:55 E 24 G 29 2.50 Fog/Mist and Breezy OVC006 19.4 17.1 91% 3 29.97 0.0
09 11:35 E 26 G 31 1.50 Fog/Mist and Windy OVC006 19.2 17.1 91% 2 29.97 0.0
09 11:15 E 24 G 30 1.00 Fog/Mist and Breezy OVC006 19.2 17.2 92% 3 29.97 0.0
09 10:55 E 23 G 30 0.75 Fog/Mist and Breezy OVC006 19 17.2 93% 3 29.97 0.0
09 10:35 E 21 1.00 Fog/Mist and Breezy OVC006 18.5 16.7 93% 3 29.98 0.0
09 10:15 E 21 G 26 1.50 Fog/Mist and Breezy OVC006 18.3 16.5 93% 3 29.98 0.0
09 09:55 E 25 G 29 1.25 Fog/Mist and Breezy OVC006 18 16.2 18 16.5 93% 1 29.98 0.0
09 09:35 E 21 G 25 3.00 Fog/Mist and Breezy OVC006 17.6 15.8 93% 2 29.99 0.0
09 09:15 E 20 G 25 3.00 Fog/Mist OVC008 17.4 15.4 92% 2 29.99 0.0
09 08:55 E 20 G 24 5.00 Fog/Mist OVC008 17.4 15.3 91% 2 30 0.0
09 08:35 E 22 7.00 Overcast and Breezy OVC008 17.2 14.9 90% 1 30 0.0
09 08:15 E 18 7.00 Overcast OVC008 17.1 14.7 90% 2 30 0.0
09 07:55 E 20 3.00 Fog/Mist OVC006 17.1 14.9 91% 2 30.01 0.0
09 07:35 E 21 0.50 Light Snow and Breezy OVC006 17.2 15.4 93% 1 30 0.0
09 07:15 E 22 0.75 Fog/Mist and Breezy OVC004 17.4 15.8 93% 1 30 0.0
09 06:55 E 22 0.50 Freezing Fog and Breezy OVC004 17.4 15.8 93% 1 30.01 0.0
09 06:35 E 20 G 26 0.75 Fog/Mist OVC004 17.4 15.8 93% 2 30.01 0.0
09 06:15 E 22 G 25 0.50 Freezing Fog and Breezy OVC004 17.4 15.8 93% 1 30.01 0.0
09 05:55 NE 18 0.50 Light Snow OVC004 17.4 15.8 93% 2 30.02 0.0
09 05:35 NE 18 0.75 Fog/Mist OVC004 17.2 15.8 94% 2 30.02 0.0
09 05:15 NE 21 0.75 Fog/Mist and Breezy OVC004 17.1 15.6 94% 1 30.02 0.0
09 04:55 NE 20 0.75 Fog/Mist OVC004 16.7 15.4 95% 1 30.02 0.0
09 04:35 NE 21 0.75 Fog/Mist and Breezy OVC004 16.7 15.4 95% 1 30.03 0.0
09 04:15 NE 20 1.00 Fog/Mist OVC004 16.7 15.3 94% 1 30.04 0.0
09 03:55 NE 17 1.50 Fog/Mist OVC004 16.5 14.9 16.7 15.8 93% 2 30.04 0.0
09 03:35 NE 17 1.50 Fog/Mist OVC004 16.5 14.9 93% 2 30.04 0.0
09 03:15 NE 20 1.25 Fog/Mist OVC004 16.5 14.9 93% 1 30.04 0.0
09 02:55 NE 20 1.25 Fog/Mist OVC004 16.5 14.9 93% 1 30.04 0.0
09 02:35 NE 17 0.75 Fog/Mist OVC004 16.5 15.1 94% 2 30.05 0.0
09 02:15 NE 16 1.00 Fog/Mist OVC004 16.7 15.3 94% 2 30.05 0.0
09 01:55 NE 16 1.00 Fog/Mist OVC004 16.7 15.4 95% 2 30.06 0.0
09 01:35 NE 14 1.25 Fog/Mist OVC004 16.7 15.6 95% 4 30.06 0.0
09 01:15 NE 15 1.50 Fog/Mist OVC004 16.7 15.8 96% 3 30.06 0.0
09 00:55 NE 12 1.75 Fog/Mist OVC006 16.7 15.6 95% 5 30.07 0.0
09 00:35 NE 10 10.00 Overcast BKN010 OVC013 16.3 14.5 93% 5 30.07 0.0
09 00:15 NE 9 10.00 Overcast OVC010 16.3 14 90% 6 30.07 0.0
08 23:55 E 12 10.00 Overcast OVC010 16.7 14.4 90% 5 30.08 0.0
08 23:35 NE 10 10.00 Overcast OVC010 16.5 14 90% 5 30.08 0.0
08 23:15 E 10 10.00 Overcast OVC010 16.3 13.6 89% 5 30.08 0.0
08 22:55 NE 10 G 16 10.00 Overcast OVC010 16.3 13.6 89% 5 30.08 0.0
08 22:35 E 9 10.00 Overcast OVC012 16 13.1 88% 5 30.09 0.0
08 22:15 E 10 10.00 Overcast OVC012 15.8 12.6 87% 4 30.09 0.0
08 21:55 E 10 10.00 Overcast OVC012 15.8 12.4 17.2 15.8 86% 4 30.09 0.0
08 21:35 E 8 10.00 Overcast OVC014 15.8 12 85% 6 30.09 0.0
08 21:15 E 9 10.00 Overcast OVC012 15.8 11.7 84% 5 30.09 0.0
08 20:55 NE 10 10.00 Overcast OVC012 16.3 12.2 84% 5 30.1 0.0
08 20:35 NE 12 10.00 Overcast OVC012 16.3 12.2 84% 4 30.1 0.0
08 20:15 NE 10 10.00 Overcast OVC012 16.5 12.6 84% 5 30.1 0.0
08 19:55 NE 12 10.00 Overcast OVC012 16.5 12.4 84% 5 30.1 0.0
08 19:35 E 9 10.00 Overcast OVC012 16.7 12.7 84% 6 30.1 0.0
08 19:15 NE 10 10.00 Overcast OVC010 16.7 12.9 85% 5 30.11 0.0
08 18:55 NE 9 10.00 Overcast OVC010 17.1 13.5 86% 7 30.11 0.0
08 18:35 NE 10 10.00 Overcast OVC010 17.1 13.6 86% 6 30.11 0.0
08 18:15 NE 12 10.00 Overcast OVC010 17.1 13.8 87% 5 30.11 0.0
08 17:55 NE 10 10.00 Overcast OVC010 17.1 13.6 86% 6 30.12 0.0
08 17:35 NE 10 10.00 Overcast OVC010 17.1 14 88% 6 30.12 0.0
08 17:15 NE 12 10.00 Overcast OVC010 17.1 13.8 87% 5 30.12 0.0
08 16:55 NE 12 10.00 Overcast OVC010 16.9 13.8 88% 5 30.13 0.0
08 16:35 NE 10 10.00 Overcast OVC010 17.1 13.8 87% 6 30.13 0.0
08 16:15 NE 10 10.00 Overcast OVC010 17.1 13.8 87% 6 30.13 0.0
08 15:55 NE 10 10.00 Overcast OVC010 16.9 13.8 17.2 16 88% 6 30.13 0.0
08 15:35 NE 9 10.00 Overcast OVC010 16.9 14 88% 6 30.14 0.0
08 15:15 NE 9 10.00 Overcast BKN009 OVC012 17.2 14 87% 7 30.14 0.0
08 14:55 NE 10 10.00 Overcast OVC012 17.2 14.2 88% 6 30.14 0.0
08 14:35 NE 9 10.00 Overcast OVC012 17.2 14 87% 7 30.15 0.0
08 14:15 NE 7 10.00 Overcast OVC012 17.2 14 87% 9 30.15 0.0
08 13:55 NE 9 10.00 Overcast OVC012 17.2 14 87% 7 30.15 0.0
08 13:35 NE 8 10.00 Overcast OVC010 16.9 13.8 88% 7 30.15 0.0
08 13:15 NE 8 10.00 Overcast OVC010 16.9 14 88% 7 30.16 0.0
08 12:55 NE 7 10.00 Overcast OVC012 16.7 14 89% 8 30.16 0.0
08 12:35 NE 8 10.00 Overcast OVC010 16.7 14 89% 7 30.16 0.0
08 12:15 NE 9 10.00 Overcast OVC010 17.1 14 88% 7 30.17 0.0
08 11:55 NE 8 10.00 Overcast OVC010 17.2 14 87% 8 30.17 0.0
08 11:35 NE 5 10.00 Overcast OVC010 17.2 13.3 84% 11 30.17 0.0
08 11:15 Calm 10.00 Overcast OVC010 17.1 13.8 87% 30.17 0.0
08 10:55 Calm 10.00 Overcast OVC010 17.2 14.4 88% 30.18 0.0
08 10:35 Calm 10.00 Overcast OVC010 16.7 14.4 90% 30.18 0.0
08 10:15 Calm 10.00 Overcast OVC010 16.3 14.2 91% 30.18 0.0
08 09:55 Calm 10.00 Overcast BKN009 OVC012 15.8 14 16.2 14.9 93% 30.18 0.0
08 09:35 Calm 10.00 Overcast OVC012 16 14.4 93% 30.18 0.0
08 09:15 W 3 10.00 Overcast OVC010 15.8 14.4 94% 30.19 0.0
08 08:55 W 3 10.00 Overcast OVC010 15.8 14.4 94% 30.19 0.0
08 08:35 W 5 7.00 Overcast OVC012 15.6 14 93% 9 30.19 0.0
08 08:15 W 5 7.00 Overcast OVC012 15.4 14 94% 9 30.19 0.0
08 07:55 W 5 7.00 Overcast SCT005 OVC012 15.3 14 95% 9 30.2 0.0
08 07:35 W 7 4.00 Fog/Mist OVC003 15.3 14 95% 6 30.2 0.0
08 07:15 SW 6 4.00 Fog/Mist OVC003 15.1 14 95% 7 30.21 0.0
08 06:55 W 6 3.00 Fog/Mist OVC003 15.3 14 95% 7 30.21 0.0
08 06:35 W 7 3.00 Fog/Mist OVC005 14.9 13.8 95% 6 30.21 0.0
08 06:15 W 7 5.00 Fog/Mist OVC005 14.9 13.8 95% 6 30.21 0.0
08 05:55 W 8 4.00 Fog/Mist OVC005 14.9 13.6 95% 5 30.22 0.0
08 05:35 W 8 4.00 Fog/Mist OVC005 15.1 14 95% 5 30.22 0.0
08 05:15 W 8 4.00 Fog/Mist OVC005 15.3 14 95% 5 30.22 0.0
08 04:55 W 8 4.00 Fog/Mist OVC005 15.4 14.4 95% 6 30.22 0.0
08 04:35 W 8 5.00 Fog/Mist OVC005 15.6 14.5 95% 6 30.23 0.0
08 04:15 W 7 5.00 Fog/Mist OVC007 15.8 14.5 95% 7 30.23 0.0
08 03:55 SW 7 7.00 Overcast OVC009 15.8 14.5 17.6 15.8 95% 7 30.23 0.0
08 03:35 SW 7 5.00 Fog/Mist OVC009 15.8 14.5 95% 7 30.23 0.0
08 03:15 SW 7 7.00 Overcast OVC013 16.3 14.7 93% 8 30.23 0.0
08 02:55 SW 8 10.00 Overcast OVC013 16.3 14.5 93% 7 30.23 0.0
08 02:35 SW 7 10.00 Overcast OVC013 16.5 14.7 93% 8 30.23 0.0
08 02:15 SW 9 10.00 Overcast OVC011 16.7 14.9 93% 6 30.23 0.0
08 01:55 SW 8 10.00 Overcast OVC009 16.7 14.5 91% 7 30.23 0.0
08 01:35 SW 6 10.00 Overcast OVC009 17.1 14.9 91% 10 30.23 0.0
08 01:15 SW 6 10.00 Overcast OVC009 16.7 14.9 93% 9 30.23 0.0
08 00:55 SW 7 10.00 Overcast OVC009 17.1 14.9 91% 8 30.24 0.0
08 00:35 SW 5 10.00 Overcast OVC009 17.2 14.9 90% 11 30.24 0.0
08 00:15 W 5 10.00 Overcast OVC009 17.2 14.9 90% 11 30.23 0.0
07 23:55 SW 6 10.00 Overcast OVC009 17.4 14.9 90% 10 30.24 0.0
07 23:35 SW 6 10.00 Overcast OVC009 17.2 15.1 91% 10 30.24 0.0
07 23:15 SW 7 10.00 Overcast OVC009 17.1 14.9 91% 8 30.24 0.0
07 22:55 SW 7 10.00 Overcast OVC009 17.2 14.9 90% 9 30.25 0.0
07 22:35 SW 6 10.00 Overcast OVC009 17.2 14.9 90% 10 30.24 0.0
07 22:15 SW 8 10.00 Overcast OVC009 17.2 14.9 90% 8 30.25 0.0
07 21:55 W 8 10.00 Overcast OVC009 17.6 15.3 18.3 17.4 91% 8 30.25 0.0
07 21:35 SW 7 10.00 Overcast OVC011 17.6 14.9 89% 9 30.25 0.0
07 21:15 W 9 10.00 Overcast OVC011 17.6 15.3 91% 7 30.25 0.0
07 20:55 W 8 10.00 Overcast OVC011 17.6 15.3 91% 8 30.25 0.0
07 20:35 W 9 10.00 Overcast OVC009 18 15.1 88% 8 30.25 0.0
07 20:15 W 8 10.00 Overcast OVC009 17.8 15.1 89% 8 30.25 0.0
07 19:55 SW 6 10.00 Overcast OVC009 17.6 14.9 89% 10 30.26 0.0
07 19:35 W 8 10.00 Overcast OVC009 17.6 14.9 89% 8 30.26 0.0
07 19:15 W 8 10.00 Overcast OVC009 17.6 14.9 89% 8 30.26 0.0
07 18:55 W 9 10.00 Overcast OVC009 18 14.9 88% 8 30.25 0.0
07 18:35 W 7 10.00 Overcast OVC009 18.3 14.9 86% 10 30.25 0.0
07 18:15 W 9 10.00 Overcast OVC009 18 14.7 87% 8 30.25 0.0
07 17:55 W 9 10.00 Overcast OVC009 17.6 14.5 88% 7 30.25 0.0
07 17:35 W 9 10.00 Overcast OVC007 17.4 14.4 88% 7 30.25 0.0
07 17:15 W 10 10.00 Overcast OVC007 17.4 14 86% 6 30.25 0.0
07 16:55 W 14 10.00 Overcast OVC007 17.6 14.7 88% 5 30.25 0.0
07 16:35 W 13 10.00 Overcast OVC007 17.6 14.9 89% 5 30.25 0.0
07 16:15 W 12 10.00 Overcast OVC007 18 14.9 88% 6 30.25 0.0
07 15:55 W 12 10.00 Overcast OVC009 18.1 15.3 19.6 18.1 88% 7 30.25 0.0
07 15:35 W 12 10.00 Overcast OVC009 18.1 15.1 88% 7 30.24 0.0
07 15:15 W 13 10.00 Overcast OVC009 18.3 15.1 87% 6 30.24 0.0
07 14:55 W 13 10.00 Overcast OVC009 18.5 15.6 88% 6 30.24 0.0
07 14:35 W 12 10.00 Overcast OVC009 18.9 15.8 88% 7 30.24 0.0
07 14:15 W 13 10.00 Overcast OVC009 19 15.6 86% 7 30.24 0.0
07 13:55 W 12 10.00 Overcast OVC009 19.4 15.8 86% 8 30.23 0.0
07 13:35 W 13 10.00 Overcast OVC009 19.4 15.8 86% 8 30.23 0.0
07 13:15 W 13 10.00 Overcast OVC009 19.4 15.8 86% 8 30.23 0.0
07 12:55 W 12 10.00 Overcast OVC009 19.4 16.2 87% 8 30.22 0.0
07 12:35 W 10 10.00 Overcast OVC009 19.2 15.8 86% 9 30.22 0.0
07 12:15 W 10 10.00 Overcast OVC009 18.9 15.8 88% 8 30.22 0.0
07 11:55 W 10 10.00 Overcast OVC009 18.9 15.6 87% 8 30.22 0.0
07 11:35 NW 10 10.00 Overcast OVC009 18.9 15.6 87% 8 30.21 0.0
07 11:15 W 10 10.00 Overcast OVC009 19 15.8 87% 8 30.21 0.0
07 10:55 W 10 10.00 Overcast OVC011 19.2 16.2 88% 9 30.21 0.0
07 10:35 W 12 10.00 Overcast OVC011 19.2 16.3 89% 8 30.2 0.0
07 10:15 W 10 10.00 Overcast OVC011 19.4 16.2 87% 9 30.2 0.0
07 09:55 W 8 10.00 Overcast OVC011 19.4 16.3 19.9 19.2 88% 10 30.2 0.0
07 09:35 W 8 10.00 Overcast OVC011 19.4 16.3 88% 10 30.19 0.0
07 09:15 W 10 10.00 Overcast OVC011 19.4 16.3 88% 9 30.19 0.0
07 08:55 W 9 10.00 Overcast OVC011 19.6 16.5 88% 10 30.18 0.0
07 08:35 NW 9 10.00 Overcast OVC011 19.8 16.5 87% 10 30.18 0.0
07 08:15 NW 12 10.00 Overcast OVC011 19.9 17.1 89% 9 30.17 0.0
07 07:55 NW 9 10.00 Overcast OVC011 19.9 16.5 87% 10 30.17 0.0
07 07:35 W 8 10.00 Overcast OVC011 19.9 16.7 87% 11 30.17 0.0
07 07:15 W 8 10.00 Overcast OVC011 19.9 16.5 87% 11 30.16 0.0
Date Time (akdt) Wind (mph) Vis. (mi.) Weather Sky Cond. Air Dwpt Max. Min. Relative Humidity Wind Chill (°F) Heat Index (°F) altimeter (in) sea level (mb) 1 hr 3 hr 6 hr
6 hour
Temperature (ºF) Pressure Precipitation (in)